createdAt,value
2023-03-05T00:00:16.829Z,100564.47
2023-03-05T00:02:45.169Z,100564.28
2023-03-05T00:05:13.650Z,100553.00
2023-03-05T00:07:41.850Z,100560.78
2023-03-05T00:10:11.426Z,100560.00
2023-03-05T00:12:39.648Z,100557.72
2023-03-05T00:15:11.004Z,100568.06
2023-03-05T00:17:39.215Z,100566.84
2023-03-05T00:20:09.524Z,100558.28
2023-03-05T00:22:37.871Z,100561.44
2023-03-05T00:25:08.074Z,100553.03
2023-03-05T00:27:36.458Z,100559.09
2023-03-05T00:30:05.673Z,100559.00
2023-03-05T00:32:36.240Z,100561.88
2023-03-05T00:35:05.155Z,100558.66
2023-03-05T00:37:33.898Z,100551.28
2023-03-05T00:40:02.372Z,100547.75
2023-03-05T00:42:30.540Z,100546.91
2023-03-05T00:44:58.819Z,100542.31
2023-03-05T00:47:28.307Z,100533.00
2023-03-05T00:49:57.853Z,100526.22
2023-03-05T00:52:26.364Z,100525.94
2023-03-05T00:54:54.800Z,100517.72
2023-03-05T00:57:23.183Z,100523.03
2023-03-05T00:59:51.316Z,100518.56
2023-03-05T01:02:19.507Z,100508.22
2023-03-05T01:04:47.805Z,100514.84
2023-03-05T01:07:18.093Z,100513.56
2023-03-05T01:09:46.301Z,100501.88
2023-03-05T01:12:14.557Z,100503.72
2023-03-05T01:14:43.016Z,100496.22
2023-03-05T01:17:11.291Z,100501.44
2023-03-05T01:19:39.692Z,100491.16
2023-03-05T01:22:09.998Z,100496.59
2023-03-05T01:24:39.572Z,100499.63
2023-03-05T01:27:07.943Z,100493.56
2023-03-05T01:29:37.992Z,100490.19
2023-03-05T01:32:06.848Z,100488.28
2023-03-05T01:34:36.913Z,100486.69
2023-03-05T01:37:05.557Z,100482.31
2023-03-05T01:39:33.675Z,100472.41
2023-03-05T01:42:03.466Z,100471.34
2023-03-05T01:44:32.729Z,100464.56
2023-03-05T01:47:01.423Z,100461.06
2023-03-05T01:49:34.191Z,100466.94
2023-03-05T01:52:07.802Z,100465.59
2023-03-05T01:54:41.044Z,100463.56
2023-03-05T01:57:13.580Z,100458.56
2023-03-05T01:59:45.676Z,100460.59
2023-03-05T02:02:15.062Z,100453.28
2023-03-05T02:04:49.293Z,100445.19
2023-03-05T02:07:19.076Z,100442.25
2023-03-05T02:09:47.334Z,100438.28
2023-03-05T02:12:17.311Z,100434.59
2023-03-05T02:14:49.392Z,100432.75
2023-03-05T02:17:18.054Z,100429.22
2023-03-05T02:19:52.876Z,100430.16
2023-03-05T02:22:25.531Z,100421.09
2023-03-05T02:24:53.727Z,100425.91
2023-03-05T02:27:34.706Z,100422.25
2023-03-05T02:30:03.939Z,100412.28
2023-03-05T02:32:32.130Z,100411.63
2023-03-05T02:35:00.497Z,100404.41
2023-03-05T02:37:30.860Z,100405.59
2023-03-05T02:39:59.020Z,100406.19
2023-03-05T02:42:27.495Z,100390.31
2023-03-05T02:44:55.809Z,100402.97
2023-03-05T02:47:24.065Z,100402.59
2023-03-05T02:49:52.297Z,100399.44
2023-03-05T02:52:20.547Z,100399.91
2023-03-05T02:54:50.149Z,100387.84
2023-03-05T02:57:19.064Z,100393.63
2023-03-05T02:59:48.181Z,100390.31
2023-03-05T03:02:17.255Z,100390.63
2023-03-05T03:04:46.575Z,100394.00
2023-03-05T03:07:15.907Z,100394.09
2023-03-05T03:09:44.158Z,100387.16
2023-03-05T03:12:13.820Z,100384.59
2023-03-05T03:14:43.703Z,100384.13
2023-03-05T03:17:14.638Z,100384.78
2023-03-05T03:19:43.315Z,100374.25
2023-03-05T03:22:14.168Z,100380.53
2023-03-05T03:24:44.916Z,100385.53
2023-03-05T03:27:14.402Z,100370.50
2023-03-05T03:29:42.550Z,100373.34
2023-03-05T03:32:10.698Z,100374.81
2023-03-05T03:34:38.866Z,100369.28
2023-03-05T03:37:08.405Z,100364.97
2023-03-05T03:39:36.557Z,100358.22
2023-03-05T03:42:05.444Z,100364.66
2023-03-05T03:44:34.932Z,100353.78
2023-03-05T03:47:03.165Z,100358.41
2023-03-05T03:49:31.334Z,100362.13
2023-03-05T03:51:59.613Z,100353.22
2023-03-05T03:54:27.920Z,100355.47
2023-03-05T03:56:56.303Z,100352.66
2023-03-05T03:59:24.920Z,100347.31
2023-03-05T04:01:54.613Z,100342.28
2023-03-05T04:04:22.882Z,100338.06
2023-03-05T04:06:51.001Z,100333.75
2023-03-05T04:09:19.194Z,100330.06
2023-03-05T04:11:47.375Z,100336.25
2023-03-05T04:14:15.555Z,100336.75
2023-03-05T04:16:43.829Z,100330.47
2023-03-05T04:19:13.400Z,100325.72
2023-03-05T04:21:41.651Z,100325.38
2023-03-05T04:24:10.176Z,100328.09
2023-03-05T04:26:38.455Z,100321.16
2023-03-05T04:29:06.624Z,100322.81
2023-03-05T04:31:34.975Z,100318.00
2023-03-05T04:34:03.189Z,100314.97
2023-03-05T04:36:32.713Z,100322.94
2023-03-05T04:39:01.091Z,100312.69
2023-03-05T04:41:29.222Z,100310.09
2023-03-05T04:43:57.414Z,100313.78
2023-03-05T04:46:25.664Z,100305.09
2023-03-05T04:48:54.287Z,100303.81
2023-03-05T04:51:22.422Z,100306.81
2023-03-05T04:53:51.943Z,100302.66
2023-03-05T04:56:20.167Z,100301.16
2023-03-05T04:58:48.460Z,100299.78
2023-03-05T05:01:17.207Z,100292.56
2023-03-05T05:03:45.335Z,100285.66
2023-03-05T05:06:13.542Z,100284.91
2023-03-05T05:08:41.792Z,100291.16
2023-03-05T05:11:15.363Z,100281.44
2023-03-05T05:13:43.599Z,100279.19
2023-03-05T05:16:11.848Z,100283.94
2023-03-05T05:18:40.201Z,100283.03
2023-03-05T05:21:10.292Z,100271.28
2023-03-05T05:23:38.785Z,100277.53
2023-03-05T05:26:14.105Z,100272.25
2023-03-05T05:28:43.842Z,100267.44
2023-03-05T05:31:14.863Z,100265.59
2023-03-05T05:33:43.731Z,100271.72
2023-03-05T05:36:15.142Z,100269.53
2023-03-05T05:38:44.582Z,100273.66
2023-03-05T05:41:17.221Z,100273.50
2023-03-05T05:43:45.728Z,100276.91
2023-03-05T05:46:17.023Z,100278.28
2023-03-05T05:48:45.967Z,100272.59
2023-03-05T05:51:16.448Z,100273.44
2023-03-05T05:53:45.292Z,100276.38
2023-03-05T05:56:16.750Z,100271.31
2023-03-05T05:58:47.937Z,100268.00
2023-03-05T06:01:19.668Z,100275.56
2023-03-05T06:03:48.597Z,100271.22
2023-03-05T06:06:19.047Z,100264.19
2023-03-05T06:08:47.510Z,100269.19
2023-03-05T06:11:19.325Z,100266.34
2023-03-05T06:13:48.495Z,100262.47
2023-03-05T06:16:21.230Z,100256.69
2023-03-05T06:18:49.303Z,100258.25
2023-03-05T06:21:20.956Z,100255.13
2023-03-05T06:23:50.441Z,100253.31
2023-03-05T06:26:22.130Z,100257.38
2023-03-05T06:28:50.593Z,100253.00
2023-03-05T06:31:21.824Z,100261.25
2023-03-05T06:33:51.000Z,100262.91
2023-03-05T06:36:22.525Z,100264.56
2023-03-05T06:38:53.114Z,100266.31
2023-03-05T06:41:26.166Z,100263.28
2023-03-05T06:43:54.979Z,100263.09
2023-03-05T06:46:26.827Z,100256.19
2023-03-05T06:48:57.840Z,100253.50
2023-03-05T06:51:28.940Z,100257.94
2023-03-05T06:54:01.270Z,100253.50
2023-03-05T06:56:31.163Z,100248.06
2023-03-05T06:58:59.802Z,100249.47
2023-03-05T07:01:28.045Z,100252.03
2023-03-05T07:03:58.846Z,100251.66
2023-03-05T07:06:28.482Z,100240.50
2023-03-05T07:08:57.040Z,100246.25
2023-03-05T07:11:26.294Z,100240.06
2023-03-05T07:13:55.950Z,100238.31
2023-03-05T07:16:27.761Z,100243.19
2023-03-05T07:18:58.638Z,100237.44
2023-03-05T07:21:29.669Z,100242.44
2023-03-05T07:24:00.288Z,100232.28
2023-03-05T07:26:30.766Z,100230.03
2023-03-05T07:29:01.146Z,100226.53
2023-03-05T07:31:31.583Z,100240.13
2023-03-05T07:34:01.783Z,100239.22
2023-03-05T07:36:30.602Z,100229.72
2023-03-05T07:38:58.797Z,100226.72
2023-03-05T07:41:28.861Z,100221.91
2023-03-05T07:43:57.292Z,100218.47
2023-03-05T07:46:30.224Z,100217.81
2023-03-05T07:48:59.257Z,100220.16
2023-03-05T07:51:28.678Z,100215.69
2023-03-05T07:53:58.875Z,100220.28
2023-03-05T07:56:31.663Z,100224.28
2023-03-05T07:59:00.523Z,100216.97
2023-03-05T08:01:30.504Z,100220.72
2023-03-05T08:03:58.890Z,100220.06
2023-03-05T08:06:27.132Z,100210.53
2023-03-05T08:08:55.312Z,100212.91
2023-03-05T08:11:23.542Z,100215.94
2023-03-05T08:13:51.888Z,100210.16
2023-03-05T08:16:25.770Z,100205.31
2023-03-05T08:18:58.289Z,100206.94
2023-03-05T08:21:29.282Z,100215.44
2023-03-05T08:23:58.324Z,100211.94
2023-03-05T08:26:30.278Z,100205.75
2023-03-05T08:28:59.333Z,100202.97
2023-03-05T08:31:30.131Z,100192.88
2023-03-05T08:34:01.826Z,100196.91
2023-03-05T08:36:30.674Z,100196.72
2023-03-05T08:38:59.575Z,100194.38
2023-03-05T08:41:27.923Z,100194.53
2023-03-05T08:43:56.338Z,100194.47
2023-03-05T08:46:24.876Z,100186.50
2023-03-05T08:48:53.152Z,100185.72
2023-03-05T08:51:26.054Z,100180.88
2023-03-05T08:53:55.572Z,100183.88
2023-03-05T08:56:23.860Z,100174.78
2023-03-05T08:58:52.957Z,100175.00
2023-03-05T09:01:22.476Z,100172.13
2023-03-05T09:03:50.908Z,100169.28
2023-03-05T09:06:19.192Z,100164.78
2023-03-05T09:08:48.697Z,100159.53
2023-03-05T09:11:18.160Z,100149.41
2023-03-05T09:13:46.785Z,100153.28
2023-03-05T09:16:18.423Z,100158.13
2023-03-05T09:18:47.148Z,100163.19
2023-03-05T09:21:21.868Z,100154.31
2023-03-05T09:23:51.509Z,100151.69
2023-03-05T09:26:20.588Z,100156.06
2023-03-05T09:28:51.979Z,100144.47
2023-03-05T09:31:20.738Z,100141.16
2023-03-05T09:33:50.118Z,100137.47
2023-03-05T09:36:21.753Z,100136.00
2023-03-05T09:38:51.968Z,100137.44
2023-03-05T09:41:34.567Z,100129.38
2023-03-05T09:44:12.908Z,100131.75
2023-03-05T09:46:53.226Z,100126.03
2023-03-05T09:49:34.227Z,100126.06
2023-03-05T09:52:11.705Z,100125.13
2023-03-05T09:54:46.184Z,100129.88
2023-03-05T09:57:20.063Z,100123.28
2023-03-05T09:59:53.386Z,100122.22
2023-03-05T10:02:27.601Z,100120.50
2023-03-05T10:05:04.802Z,100120.06
2023-03-05T10:07:35.675Z,100121.88
2023-03-05T10:10:14.128Z,100131.16
2023-03-05T10:12:44.489Z,100125.41
2023-03-05T10:15:16.910Z,100130.25
2023-03-05T10:18:00.072Z,100121.19
2023-03-05T10:20:52.846Z,100121.19
2023-03-05T10:23:52.423Z,100121.16
2023-03-05T10:26:36.415Z,100120.09
2023-03-05T10:29:20.230Z,100120.56
2023-03-05T10:32:07.910Z,100123.66
2023-03-05T10:35:13.878Z,100118.63
2023-03-05T10:38:32.463Z,100118.63
2023-03-05T10:41:05.531Z,100104.34
2023-03-05T10:43:41.472Z,100106.72
2023-03-05T10:46:17.515Z,100102.41
2023-03-05T10:48:52.262Z,100104.16
2023-03-05T10:51:24.106Z,100098.00
2023-03-05T10:53:57.719Z,100095.94
2023-03-05T10:56:28.717Z,100083.09
2023-03-05T10:58:58.904Z,100082.47
2023-03-05T11:01:31.505Z,100080.50
2023-03-05T11:04:03.533Z,100079.19
2023-03-05T11:06:39.849Z,100079.81
2023-03-05T11:09:24.105Z,100071.63
2023-03-05T11:12:15.890Z,100062.47
2023-03-05T11:14:48.831Z,100053.31
2023-03-05T11:17:31.462Z,100052.94
2023-03-05T11:20:34.738Z,100064.16
2023-03-05T11:23:10.519Z,100061.41
2023-03-05T11:25:58.102Z,100053.19
2023-03-05T11:28:33.593Z,100053.38
2023-03-05T11:31:08.413Z,100046.09
2023-03-05T11:33:38.771Z,100045.56
2023-03-05T11:36:27.019Z,100037.44
2023-03-05T11:39:00.714Z,100041.38
2023-03-05T11:41:35.688Z,100035.88
2023-03-05T11:44:13.307Z,100033.66
2023-03-05T11:46:47.863Z,100037.41
2023-03-05T11:49:21.039Z,100028.97
2023-03-05T11:51:59.112Z,100025.94
2023-03-05T11:54:34.478Z,100024.91
2023-03-05T11:57:04.770Z,100016.59
2023-03-05T11:59:39.570Z,100013.06
2023-03-05T12:02:19.952Z,100009.19
2023-03-05T12:04:49.778Z,99992.25
2023-03-05T12:07:23.274Z,100001.13
2023-03-05T12:09:54.588Z,99992.94
2023-03-05T12:12:42.080Z,99992.03
2023-03-05T12:16:13.535Z,99980.84
2023-03-05T12:18:58.230Z,99977.28
2023-03-05T12:21:36.732Z,99972.84
2023-03-05T12:24:35.442Z,99958.63
2023-03-05T12:27:16.016Z,99963.84
2023-03-05T12:29:50.436Z,99955.31
2023-03-05T12:33:02.113Z,99949.28
2023-03-05T12:35:39.625Z,99954.88
2023-03-05T12:38:39.677Z,99945.72
2023-03-05T12:41:37.437Z,99937.03
2023-03-05T12:44:24.066Z,99932.06
2023-03-05T12:47:19.274Z,99930.03
2023-03-05T12:49:50.812Z,99923.47
2023-03-05T12:52:27.312Z,99916.03
2023-03-05T12:55:20.142Z,99903.91
2023-03-05T12:57:59.416Z,99908.03
2023-03-05T13:00:44.259Z,99905.75
2023-03-05T13:03:18.428Z,99899.16
2023-03-05T13:05:52.057Z,99889.22
2023-03-05T13:08:24.654Z,99886.78
2023-03-05T13:10:54.936Z,99878.72
2023-03-05T13:13:25.460Z,99880.00
2023-03-05T13:15:55.267Z,99879.63
2023-03-05T13:18:26.904Z,99872.94
2023-03-05T13:21:04.481Z,99875.75
2023-03-05T13:23:34.186Z,99873.91
2023-03-05T13:26:15.469Z,99871.03
2023-03-05T13:28:44.996Z,99872.94
2023-03-05T13:31:18.429Z,99864.94
2023-03-05T13:33:56.696Z,99860.59
2023-03-05T13:36:27.922Z,99858.13
2023-03-05T13:38:56.529Z,99848.38
2023-03-05T13:41:27.128Z,99851.75
2023-03-05T13:43:58.085Z,99847.97
2023-03-05T13:46:33.940Z,99845.63
2023-03-05T13:49:22.966Z,99851.75
2023-03-05T13:51:53.638Z,99838.69
2023-03-05T13:54:23.884Z,99836.00
2023-03-05T13:56:58.753Z,99829.88
2023-03-05T13:59:29.588Z,99819.53
2023-03-05T14:02:00.771Z,99821.41
2023-03-05T14:04:31.331Z,99815.66
2023-03-05T14:07:03.394Z,99815.75
2023-03-05T14:09:33.382Z,99802.59
2023-03-05T14:12:04.832Z,99806.44
2023-03-05T14:14:38.116Z,99801.97
2023-03-05T14:17:41.806Z,99787.50
2023-03-05T14:20:23.681Z,99793.03
2023-03-05T14:22:54.403Z,99792.69
2023-03-05T14:25:34.843Z,99789.88
2023-03-05T14:28:04.527Z,99777.59
2023-03-05T14:30:36.017Z,99777.84
2023-03-05T14:33:06.105Z,99778.22
2023-03-05T14:35:34.437Z,99768.78
2023-03-05T14:38:02.773Z,99768.53
2023-03-05T14:40:33.721Z,99774.56
2023-03-05T14:43:03.956Z,99774.91
2023-03-05T14:45:34.840Z,99762.44
2023-03-05T14:48:07.073Z,99762.31
2023-03-05T14:50:38.811Z,99758.28
2023-03-05T14:53:14.198Z,99757.81
2023-03-05T14:55:43.705Z,99759.59
2023-03-05T14:58:15.013Z,99741.84
2023-03-05T15:00:44.844Z,99750.78
2023-03-05T15:03:16.147Z,99740.91
2023-03-05T15:05:46.001Z,99736.75
2023-03-05T15:08:18.145Z,99731.72
2023-03-05T15:10:46.397Z,99722.66
2023-03-05T15:13:16.099Z,99736.19
2023-03-05T15:15:45.992Z,99724.31
2023-03-05T15:18:18.225Z,99723.03
2023-03-05T15:20:48.696Z,99725.00
2023-03-05T15:23:17.937Z,99722.56
2023-03-05T15:25:46.076Z,99715.16
2023-03-05T15:28:14.350Z,99712.88
2023-03-05T15:30:46.277Z,99704.06
2023-03-05T15:33:18.163Z,99696.69
2023-03-05T15:35:46.493Z,99685.84
2023-03-05T15:38:15.265Z,99690.09
2023-03-05T15:40:44.274Z,99683.13
2023-03-05T15:43:12.584Z,99681.84
2023-03-05T15:45:40.942Z,99676.75
2023-03-05T15:48:09.391Z,99670.22
2023-03-05T15:50:43.048Z,99659.84
2023-03-05T15:53:15.571Z,99667.97
2023-03-05T15:55:46.203Z,99664.06
2023-03-05T15:58:17.492Z,99661.16
2023-03-05T16:00:47.343Z,99657.28
2023-03-05T16:03:15.670Z,99659.03
2023-03-05T16:05:45.475Z,99649.50
2023-03-05T16:08:13.760Z,99642.34
2023-03-05T16:10:42.309Z,99644.69
2023-03-05T16:13:15.459Z,99642.44
2023-03-05T16:15:44.215Z,99637.63
2023-03-05T16:18:16.637Z,99642.22
2023-03-05T16:20:47.575Z,99643.75
2023-03-05T16:23:15.990Z,99635.28
2023-03-05T16:25:44.288Z,99632.03
2023-03-05T16:28:12.551Z,99637.44
2023-03-05T16:30:40.964Z,99637.91
2023-03-05T16:33:09.796Z,99626.38
2023-03-05T16:35:37.892Z,99630.34
2023-03-05T16:38:08.373Z,99627.88
2023-03-05T16:41:06.093Z,99621.44
2023-03-05T16:43:27.216Z,99617.44
2023-03-05T16:45:55.422Z,99626.00
2023-03-05T16:48:23.801Z,99610.28
2023-03-05T16:50:52.045Z,99617.19
2023-03-05T16:53:21.539Z,99617.56
2023-03-05T16:55:49.842Z,99616.97
2023-03-05T16:58:18.119Z,99618.72
2023-03-05T17:00:46.655Z,99614.84
2023-03-05T17:03:15.394Z,99618.34
2023-03-05T17:05:43.925Z,99616.59
2023-03-05T17:08:12.126Z,99617.41
2023-03-05T17:10:44.610Z,99617.13
2023-03-05T17:13:12.933Z,99606.91
2023-03-05T17:18:09.985Z,99612.91
2023-03-05T17:20:38.218Z,99607.97
2023-03-05T17:23:06.444Z,99610.84
2023-03-05T17:25:34.961Z,99605.28
2023-03-05T17:28:04.666Z,99609.72
2023-03-05T17:30:33.359Z,99607.91
2023-03-05T17:33:01.664Z,99599.69
2023-03-05T17:35:29.905Z,99610.56
2023-03-05T17:37:58.227Z,99609.81
2023-03-05T17:40:26.922Z,99608.38
2023-03-05T17:42:55.055Z,99616.78
2023-03-05T17:45:24.674Z,99606.81
2023-03-05T17:47:53.845Z,99610.41
2023-03-05T17:50:22.725Z,99605.78
2023-03-05T17:52:50.969Z,99614.03
2023-03-05T17:55:20.120Z,99608.88
2023-03-05T17:57:48.312Z,99610.38
2023-03-05T18:00:22.531Z,99606.63
2023-03-05T18:02:53.116Z,99603.31
2023-03-05T18:05:23.533Z,99612.91
2023-03-05T18:07:52.809Z,99610.16
2023-03-05T18:10:23.209Z,99605.44
2023-03-05T18:12:52.228Z,99609.25
2023-03-05T18:15:23.247Z,99609.44
2023-03-05T18:17:53.779Z,99612.59
2023-03-05T18:20:30.553Z,99604.59
2023-03-05T18:23:00.916Z,99607.31
2023-03-05T18:25:31.343Z,99610.56
2023-03-05T18:28:00.821Z,99611.13
2023-03-05T18:30:30.250Z,99604.16
2023-03-05T18:33:00.276Z,99605.59
2023-03-05T18:35:29.729Z,99606.81
2023-03-05T18:37:58.361Z,99607.56
2023-03-05T18:40:29.616Z,99605.06
2023-03-05T18:43:01.536Z,99602.47
2023-03-05T18:45:31.167Z,99600.50
2023-03-05T18:48:00.783Z,99595.19
2023-03-05T18:50:30.321Z,99602.72
2023-03-05T18:52:58.871Z,99597.25
2023-03-05T18:55:33.389Z,99594.81
2023-03-05T18:58:02.935Z,99591.16
2023-03-05T19:00:33.292Z,99579.50
2023-03-05T19:03:03.459Z,99579.16
2023-03-05T19:05:32.151Z,99577.94
2023-03-05T19:08:01.306Z,99582.41
2023-03-05T19:10:29.608Z,99589.44
2023-03-05T19:13:07.914Z,99580.00
2023-03-05T19:15:36.144Z,99589.97
2023-03-05T19:18:05.711Z,99581.75
2023-03-05T19:20:33.962Z,99577.13
2023-03-05T19:23:02.113Z,99578.00
2023-03-05T19:25:30.487Z,99580.66
2023-03-05T19:27:58.995Z,99574.50
2023-03-05T19:30:27.890Z,99574.22
2023-03-05T19:32:59.141Z,99575.16
2023-03-05T19:35:33.275Z,99569.25
2023-03-05T19:38:01.635Z,99567.25
2023-03-05T19:40:30.310Z,99566.75
2023-03-05T19:43:01.854Z,99562.25
2023-03-05T19:45:34.153Z,99568.28
2023-03-05T19:48:02.825Z,99560.47
2023-03-05T19:50:34.470Z,99557.75
2023-03-05T19:53:03.013Z,99556.56
2023-03-05T19:55:31.711Z,99552.72
2023-03-05T19:58:02.028Z,99551.56
2023-03-05T20:00:30.513Z,99552.31
2023-03-05T20:02:59.292Z,99551.00
2023-03-05T20:05:27.650Z,99543.88
2023-03-05T20:07:57.638Z,99540.78
2023-03-05T20:10:26.236Z,99538.19
2023-03-05T20:12:54.636Z,99527.13
2023-03-05T20:15:23.484Z,99529.63
2023-03-05T20:17:54.032Z,99525.78
2023-03-05T20:20:22.307Z,99529.78
2023-03-05T20:22:50.587Z,99529.97
2023-03-05T20:25:24.709Z,99528.56
2023-03-05T20:27:54.796Z,99526.13
2023-03-05T20:30:23.361Z,99523.66
2023-03-05T20:32:51.831Z,99524.28
2023-03-05T20:35:20.419Z,99515.75
2023-03-05T20:38:00.145Z,99509.38
2023-03-05T20:40:29.992Z,99510.13
2023-03-05T20:42:58.273Z,99514.88
2023-03-05T20:45:26.595Z,99511.69
2023-03-05T20:47:55.215Z,99509.28
2023-03-05T20:50:23.599Z,99509.94
2023-03-05T20:52:51.814Z,99500.94
2023-03-05T20:55:20.160Z,99499.88
2023-03-05T20:57:52.695Z,99492.66
2023-03-05T21:00:21.409Z,99489.63
2023-03-05T21:02:51.557Z,99482.84
2023-03-05T21:05:21.954Z,99490.00
2023-03-05T21:07:50.639Z,99493.88
2023-03-05T21:10:20.242Z,99480.97
2023-03-05T21:12:51.633Z,99476.25
2023-03-05T21:15:22.862Z,99477.72
2023-03-05T21:17:51.183Z,99481.63
2023-03-05T21:20:22.467Z,99478.34
2023-03-05T21:22:50.680Z,99465.00
2023-03-05T21:25:23.154Z,99466.53
2023-03-05T21:27:57.336Z,99459.63
2023-03-05T21:30:31.471Z,99453.50
2023-03-05T21:33:01.179Z,99452.72
2023-03-05T21:35:30.133Z,99445.28
2023-03-05T21:37:58.364Z,99445.38
2023-03-05T21:40:26.788Z,99448.69
2023-03-05T21:42:56.929Z,99452.94
2023-03-05T21:45:28.536Z,99452.56
2023-03-05T21:47:58.649Z,99451.63
2023-03-05T21:50:27.508Z,99458.00
2023-03-05T21:52:56.062Z,99456.66
2023-03-05T21:55:32.261Z,99445.63
2023-03-05T21:58:02.329Z,99444.19
2023-03-05T22:00:30.641Z,99440.47
2023-03-05T22:02:58.777Z,99439.63
2023-03-05T22:05:26.975Z,99432.06
2023-03-05T22:07:56.578Z,99430.06
2023-03-05T22:10:25.389Z,99430.44
2023-03-05T22:13:03.243Z,99419.63
2023-03-05T22:15:33.172Z,99424.09
2023-03-05T22:18:01.792Z,99423.47
2023-03-05T22:20:30.160Z,99412.63
2023-03-05T22:22:58.490Z,99415.81
2023-03-05T22:25:26.877Z,99407.66
2023-03-05T22:27:55.543Z,99402.44
2023-03-05T22:30:24.228Z,99402.41
2023-03-05T22:32:55.000Z,99409.53
2023-03-05T22:35:23.544Z,99402.84
2023-03-05T22:37:51.780Z,99397.78
2023-03-05T22:40:21.390Z,99391.78
2023-03-05T22:42:50.185Z,99383.69
2023-03-05T22:45:19.882Z,99382.28
2023-03-05T22:47:50.458Z,99382.81
2023-03-05T22:50:21.093Z,99376.44
2023-03-05T22:52:49.340Z,99388.34
2023-03-05T22:55:18.156Z,99374.56
2023-03-05T22:57:46.513Z,99382.88
2023-03-05T23:00:18.682Z,99379.66
2023-03-05T23:02:47.589Z,99375.69
2023-03-05T23:05:16.111Z,99372.94
2023-03-05T23:07:47.122Z,99372.63
2023-03-05T23:10:19.476Z,99365.06
2023-03-05T23:12:51.968Z,99368.69
2023-03-05T23:15:24.927Z,99367.94
2023-03-05T23:17:53.342Z,99353.94
2023-03-05T23:20:25.088Z,99361.31
2023-03-05T23:22:56.179Z,99356.69
2023-03-05T23:25:27.351Z,99358.25
2023-03-05T23:27:57.837Z,99362.06
2023-03-05T23:30:28.894Z,99354.69
2023-03-05T23:33:00.406Z,99351.56
2023-03-05T23:35:31.073Z,99351.34
2023-03-05T23:38:02.773Z,99342.31
2023-03-05T23:40:34.256Z,99342.53
2023-03-05T23:43:02.961Z,99341.19
2023-03-05T23:45:31.599Z,99332.09
2023-03-05T23:48:00.347Z,99332.97
2023-03-05T23:50:30.887Z,99328.50
2023-03-05T23:53:02.232Z,99333.38
2023-03-05T23:55:34.620Z,99325.78
2023-03-05T23:58:03.319Z,99320.44
